createdAt,value
2023-02-15T00:00:11.721Z,99696.59
2023-02-15T00:02:59.334Z,99694.16
2023-02-15T00:05:26.692Z,99692.53
2023-02-15T00:07:54.288Z,99690.00
2023-02-15T00:10:21.591Z,99690.88
2023-02-15T00:12:49.150Z,99686.59
2023-02-15T00:15:16.509Z,99689.16
2023-02-15T00:17:44.066Z,99685.84
2023-02-15T00:20:12.053Z,99675.06
2023-02-15T00:22:39.606Z,99677.81
2023-02-15T00:25:07.150Z,99671.09
2023-02-15T00:27:35.539Z,99668.38
2023-02-15T00:30:02.943Z,99668.19
2023-02-15T00:32:30.576Z,99668.41
2023-02-15T00:34:57.855Z,99666.63
2023-02-15T00:37:25.449Z,99665.69
2023-02-15T00:39:52.789Z,99654.34
2023-02-15T00:42:20.340Z,99656.78
2023-02-15T00:44:47.635Z,99639.50
2023-02-15T00:47:15.186Z,99650.75
2023-02-15T00:49:42.436Z,99643.72
2023-02-15T00:52:10.137Z,99635.44
2023-02-15T00:54:39.771Z,99634.59
2023-02-15T00:57:07.477Z,99637.31
2023-02-15T00:59:35.985Z,99634.81
2023-02-15T01:02:03.575Z,99643.38
2023-02-15T01:04:30.957Z,99644.06
2023-02-15T01:06:58.619Z,99637.88
2023-02-15T01:09:25.991Z,99638.63
2023-02-15T01:11:53.794Z,99637.66
2023-02-15T01:14:21.070Z,99640.09
2023-02-15T01:16:48.724Z,99643.50
2023-02-15T01:19:16.040Z,99636.53
2023-02-15T01:21:43.613Z,99639.06
2023-02-15T01:24:15.650Z,99632.19
2023-02-15T01:26:43.252Z,99630.53
2023-02-15T01:29:10.521Z,99618.50
2023-02-15T01:31:40.327Z,99619.41
2023-02-15T01:34:07.776Z,99616.75
2023-02-15T01:36:36.315Z,99616.00
2023-02-15T01:39:03.913Z,99624.78
2023-02-15T01:41:32.017Z,99603.72
2023-02-15T01:44:03.106Z,99601.91
2023-02-15T01:46:39.380Z,99599.69
2023-02-15T01:49:28.613Z,99600.69
2023-02-15T01:51:56.746Z,99586.78
2023-02-15T01:54:32.596Z,99598.13
2023-02-15T01:57:10.344Z,99594.78
2023-02-15T01:59:44.236Z,99588.63
2023-02-15T02:02:16.694Z,99589.66
2023-02-15T02:04:51.886Z,99588.94
2023-02-15T02:07:25.007Z,99591.44
2023-02-15T02:09:53.109Z,99583.13
2023-02-15T02:12:23.916Z,99580.63
2023-02-15T02:14:54.050Z,99574.53
2023-02-15T02:18:08.714Z,99570.03
2023-02-15T02:20:38.702Z,99564.06
2023-02-15T02:23:50.703Z,99560.03
2023-02-15T02:27:24.417Z,99560.66
2023-02-15T02:30:44.400Z,99560.88
2023-02-15T02:33:14.565Z,99549.66
2023-02-15T02:36:12.710Z,99541.09
2023-02-15T02:39:05.035Z,99540.59
2023-02-15T02:41:51.400Z,99531.94
2023-02-15T02:44:32.358Z,99535.25
2023-02-15T02:47:25.892Z,99533.50
2023-02-15T02:50:10.636Z,99522.91
2023-02-15T02:52:52.360Z,99529.03
2023-02-15T02:55:32.758Z,99524.00
2023-02-15T02:58:16.177Z,99521.41
2023-02-15T03:01:07.267Z,99525.06
2023-02-15T03:03:57.065Z,99526.78
2023-02-15T03:06:41.467Z,99528.41
2023-02-15T03:09:47.918Z,99521.63
2023-02-15T03:12:25.599Z,99525.78
2023-02-15T03:15:02.568Z,99513.84
2023-02-15T03:17:36.603Z,99513.00
2023-02-15T03:20:15.150Z,99511.44
2023-02-15T03:22:54.291Z,99515.03
2023-02-15T03:25:42.866Z,99510.84
2023-02-15T03:28:19.088Z,99511.69
2023-02-15T03:30:54.760Z,99518.94
2023-02-15T03:33:24.939Z,99516.94
2023-02-15T03:36:07.476Z,99505.88
2023-02-15T03:38:53.321Z,99504.97
2023-02-15T03:41:26.013Z,99522.59
2023-02-15T03:44:06.092Z,99521.06
2023-02-15T03:47:08.128Z,99514.09
2023-02-15T03:49:49.952Z,99523.78
2023-02-15T03:52:19.027Z,99521.06
2023-02-15T03:54:49.517Z,99521.75
2023-02-15T03:57:43.659Z,99521.91
2023-02-15T04:00:34.455Z,99519.94
2023-02-15T04:03:17.017Z,99527.53
2023-02-15T04:05:46.450Z,99518.78
2023-02-15T04:08:14.598Z,99519.19
2023-02-15T04:10:54.420Z,99530.25
2023-02-15T04:13:32.232Z,99526.09
2023-02-15T04:16:07.134Z,99527.94
2023-02-15T04:19:02.369Z,99530.50
2023-02-15T04:21:50.606Z,99528.66
2023-02-15T04:24:37.149Z,99524.44
2023-02-15T04:27:06.862Z,99523.75
2023-02-15T04:29:34.457Z,99520.06
2023-02-15T04:32:03.568Z,99521.75
2023-02-15T04:34:31.202Z,99519.38
2023-02-15T04:36:58.481Z,99524.34
2023-02-15T04:39:26.083Z,99520.41
2023-02-15T04:41:53.433Z,99518.69
2023-02-15T04:44:20.964Z,99522.94
2023-02-15T04:46:48.363Z,99523.06
2023-02-15T04:49:16.195Z,99521.34
2023-02-15T04:51:43.563Z,99519.44
2023-02-15T04:54:11.141Z,99518.72
2023-02-15T04:56:40.000Z,99523.94
2023-02-15T04:59:07.679Z,99517.03
2023-02-15T05:01:35.127Z,99520.47
2023-02-15T05:04:02.859Z,99512.56
2023-02-15T05:06:30.619Z,99510.19
2023-02-15T05:09:00.278Z,99517.94
2023-02-15T05:11:28.130Z,99516.97
2023-02-15T05:13:55.915Z,99523.00
2023-02-15T05:16:23.322Z,99524.50
2023-02-15T05:18:51.023Z,99524.50
2023-02-15T05:21:18.367Z,99517.97
2023-02-15T05:23:46.121Z,99522.13
2023-02-15T05:26:37.151Z,99519.38
2023-02-15T05:29:05.970Z,99523.47
2023-02-15T05:31:34.678Z,99526.84
2023-02-15T05:34:03.165Z,99520.66
2023-02-15T05:36:30.497Z,99520.72
2023-02-15T05:38:58.193Z,99518.28
2023-02-15T05:41:26.656Z,99522.66
2023-02-15T05:43:57.957Z,99513.31
2023-02-15T05:46:25.274Z,99521.88
2023-02-15T05:48:52.845Z,99522.94
2023-02-15T05:51:20.148Z,99522.03
2023-02-15T05:53:47.765Z,99523.84
2023-02-15T05:56:15.024Z,99521.53
2023-02-15T05:58:43.097Z,99524.88
2023-02-15T06:01:13.904Z,99518.78
2023-02-15T06:03:41.800Z,99525.50
2023-02-15T06:06:09.548Z,99520.47
2023-02-15T06:08:39.022Z,99518.03
2023-02-15T06:11:07.076Z,99510.38
2023-02-15T06:13:38.501Z,99513.69
2023-02-15T06:16:08.092Z,99510.63
2023-02-15T06:18:35.927Z,99516.66
2023-02-15T06:21:03.455Z,99515.81
2023-02-15T06:23:31.194Z,99525.06
2023-02-15T06:25:58.551Z,99527.78
2023-02-15T06:28:26.642Z,99527.63
2023-02-15T06:30:54.432Z,99526.81
2023-02-15T06:33:22.871Z,99534.47
2023-02-15T06:35:50.172Z,99533.50
2023-02-15T06:38:18.622Z,99530.75
2023-02-15T06:40:45.933Z,99534.69
2023-02-15T06:43:14.043Z,99534.50
2023-02-15T06:45:43.351Z,99533.50
2023-02-15T06:48:12.218Z,99529.00
2023-02-15T06:50:40.172Z,99527.94
2023-02-15T06:53:07.809Z,99531.31
2023-02-15T06:55:35.077Z,99530.66
2023-02-15T06:58:02.718Z,99527.81
2023-02-15T07:00:30.072Z,99519.25
2023-02-15T07:02:59.388Z,99526.72
2023-02-15T07:05:32.417Z,99516.06
2023-02-15T07:08:01.464Z,99517.78
2023-02-15T07:10:29.654Z,99520.13
2023-02-15T07:12:57.337Z,99521.50
2023-02-15T07:15:25.462Z,99521.41
2023-02-15T07:17:53.135Z,99519.50
2023-02-15T07:20:23.919Z,99522.91
2023-02-15T07:22:52.197Z,99521.03
2023-02-15T07:25:19.736Z,99522.84
2023-02-15T07:27:47.371Z,99512.16
2023-02-15T07:30:18.414Z,99517.25
2023-02-15T07:33:05.693Z,99511.47
2023-02-15T07:35:34.319Z,99514.47
2023-02-15T07:38:02.340Z,99517.06
2023-02-15T07:40:29.652Z,99508.16
2023-02-15T07:43:00.200Z,99513.25
2023-02-15T07:45:28.259Z,99514.50
2023-02-15T07:47:55.855Z,99517.81
2023-02-15T07:50:23.339Z,99512.94
2023-02-15T07:52:50.935Z,99513.63
2023-02-15T07:55:18.206Z,99505.94
2023-02-15T07:57:47.868Z,99504.50
2023-02-15T08:00:26.016Z,99493.56
2023-02-15T08:03:14.885Z,99495.41
2023-02-15T08:05:45.220Z,99508.09
2023-02-15T08:08:33.988Z,99506.28
2023-02-15T08:11:37.687Z,99504.56
2023-02-15T08:14:17.697Z,99497.28
2023-02-15T08:16:53.985Z,99495.22
2023-02-15T08:19:24.421Z,99492.47
2023-02-15T08:21:59.981Z,99498.00
2023-02-15T08:24:33.942Z,99493.50
2023-02-15T08:27:07.403Z,99483.16
2023-02-15T08:29:37.226Z,99483.63
2023-02-15T08:32:13.226Z,99485.59
2023-02-15T08:34:43.128Z,99470.78
2023-02-15T08:37:10.646Z,99471.09
2023-02-15T08:39:38.373Z,99465.84
2023-02-15T08:42:05.811Z,99466.44
2023-02-15T08:44:33.409Z,99469.66
2023-02-15T08:47:04.882Z,99465.19
2023-02-15T08:49:33.063Z,99476.03
2023-02-15T08:52:00.865Z,99475.06
2023-02-15T08:54:28.630Z,99462.34
2023-02-15T08:56:55.969Z,99468.03
2023-02-15T08:59:25.230Z,99465.69
2023-02-15T09:01:54.200Z,99467.75
2023-02-15T09:04:22.225Z,99459.31
2023-02-15T09:06:51.573Z,99462.78
2023-02-15T09:09:20.727Z,99463.84
2023-02-15T09:11:55.771Z,99460.25
2023-02-15T09:14:28.282Z,99465.91
2023-02-15T09:16:56.454Z,99470.09
2023-02-15T09:19:24.990Z,99463.91
2023-02-15T09:21:52.694Z,99454.19
2023-02-15T09:24:20.657Z,99459.84
2023-02-15T09:26:49.746Z,99446.94
2023-02-15T09:29:19.497Z,99451.66
2023-02-15T09:31:51.025Z,99443.63
2023-02-15T09:34:23.432Z,99442.41
2023-02-15T09:36:52.767Z,99438.25
2023-02-15T09:39:26.597Z,99437.34
2023-02-15T09:41:56.421Z,99430.47
2023-02-15T09:44:57.999Z,99427.63
2023-02-15T09:48:18.867Z,99427.78
2023-02-15T09:51:01.516Z,99424.13
2023-02-15T09:54:05.158Z,99421.34
2023-02-15T09:57:01.755Z,99422.63
2023-02-15T09:59:38.088Z,99412.66
2023-02-15T10:02:29.687Z,99417.22
2023-02-15T10:05:25.577Z,99410.31
2023-02-15T10:08:24.482Z,99410.59
2023-02-15T10:11:27.775Z,99406.31
2023-02-15T10:14:23.326Z,99402.69
2023-02-15T10:17:24.400Z,99399.38
2023-02-15T10:20:42.930Z,99398.75
2023-02-15T10:23:28.859Z,99403.63
2023-02-15T10:26:23.966Z,99400.88
2023-02-15T10:29:37.588Z,99386.03
2023-02-15T10:32:27.526Z,99388.38
2023-02-15T10:35:16.830Z,99392.06
2023-02-15T10:38:00.522Z,99384.31
2023-02-15T10:41:00.872Z,99378.97
2023-02-15T10:44:26.662Z,99372.38
2023-02-15T10:47:15.216Z,99377.59
2023-02-15T10:49:58.952Z,99371.91
2023-02-15T10:52:54.849Z,99367.34
2023-02-15T10:55:43.526Z,99361.06
2023-02-15T10:58:30.492Z,99358.94
2023-02-15T11:01:34.529Z,99350.31
2023-02-15T11:04:19.343Z,99341.66
2023-02-15T11:07:00.424Z,99341.09
2023-02-15T11:09:42.184Z,99339.69
2023-02-15T11:12:18.708Z,99328.16
2023-02-15T11:15:05.142Z,99331.06
2023-02-15T11:17:43.352Z,99339.81
2023-02-15T11:20:39.612Z,99330.16
2023-02-15T11:23:17.321Z,99322.84
2023-02-15T11:26:08.704Z,99320.28
2023-02-15T11:28:46.160Z,99311.88
2023-02-15T11:31:22.138Z,99310.69
2023-02-15T11:33:59.812Z,99316.19
2023-02-15T11:36:48.038Z,99309.34
2023-02-15T11:39:22.658Z,99313.38
2023-02-15T11:41:56.922Z,99306.91
2023-02-15T11:44:48.662Z,99299.25
2023-02-15T11:47:16.293Z,99303.75
2023-02-15T11:49:46.763Z,99291.59
2023-02-15T11:52:19.462Z,99287.41
2023-02-15T11:54:52.322Z,99290.16
2023-02-15T11:57:42.155Z,99287.91
2023-02-15T12:00:49.466Z,99283.25
2023-02-15T12:03:40.889Z,99278.59
2023-02-15T12:06:21.202Z,99279.94
2023-02-15T12:09:02.021Z,99282.53
2023-02-15T12:11:39.763Z,99274.63
2023-02-15T12:14:10.575Z,99268.31
2023-02-15T12:16:54.780Z,99270.13
2023-02-15T12:19:33.926Z,99258.41
2023-02-15T12:22:08.041Z,99265.00
2023-02-15T12:24:46.775Z,99248.53
2023-02-15T12:27:36.700Z,99247.91
2023-02-15T12:30:36.990Z,99251.16
2023-02-15T12:33:17.336Z,99244.78
2023-02-15T12:35:45.674Z,99239.03
2023-02-15T12:38:13.349Z,99232.63
2023-02-15T12:40:41.254Z,99237.72
2023-02-15T12:43:36.242Z,99232.19
2023-02-15T12:46:26.956Z,99228.59
2023-02-15T12:49:11.188Z,99226.31
2023-02-15T12:51:57.726Z,99213.88
2023-02-15T12:54:43.479Z,99219.44
2023-02-15T12:57:30.199Z,99205.81
2023-02-15T13:00:20.413Z,99202.16
2023-02-15T13:03:00.252Z,99210.75
2023-02-15T13:05:40.765Z,99191.06
2023-02-15T13:08:18.893Z,99196.94
2023-02-15T13:11:01.951Z,99191.81
2023-02-15T13:13:36.633Z,99185.19
2023-02-15T13:16:12.320Z,99183.94
2023-02-15T13:18:45.445Z,99185.75
2023-02-15T13:21:21.716Z,99180.88
2023-02-15T13:24:19.037Z,99173.81
2023-02-15T13:26:48.636Z,99172.72
2023-02-15T13:29:34.750Z,99172.41
2023-02-15T13:32:31.376Z,99161.34
2023-02-15T13:35:06.113Z,99156.94
2023-02-15T13:37:51.330Z,99157.88
2023-02-15T13:40:56.389Z,99163.72
2023-02-15T13:43:50.628Z,99145.56
2023-02-15T13:46:45.548Z,99143.16
2023-02-15T13:49:26.533Z,99158.75
2023-02-15T13:52:24.756Z,99137.13
2023-02-15T13:55:23.181Z,99158.91
2023-02-15T13:58:21.666Z,99141.00
2023-02-15T14:01:23.730Z,99140.09
2023-02-15T14:04:42.258Z,99138.28
2023-02-15T14:07:31.096Z,99144.16
2023-02-15T14:10:16.160Z,99137.06
2023-02-15T14:13:10.747Z,99128.19
2023-02-15T14:16:08.853Z,99142.56
2023-02-15T14:18:52.205Z,99140.97
2023-02-15T14:22:09.424Z,99135.94
2023-02-15T14:24:50.722Z,99121.88
2023-02-15T14:27:29.101Z,99122.13
2023-02-15T14:30:03.172Z,99125.91
2023-02-15T14:32:50.904Z,99121.56
2023-02-15T14:35:31.334Z,99110.78
2023-02-15T14:38:10.684Z,99109.44
2023-02-15T14:41:03.298Z,99108.53
2023-02-15T14:43:55.556Z,99112.59
2023-02-15T14:46:38.070Z,99102.38
2023-02-15T14:49:18.436Z,99107.91
2023-02-15T14:51:49.006Z,99102.53
2023-02-15T14:54:19.069Z,99107.63
2023-02-15T14:57:07.787Z,99099.63
2023-02-15T14:59:59.398Z,99110.69
2023-02-15T15:02:48.437Z,99101.59
2023-02-15T15:05:36.859Z,99102.13
2023-02-15T15:08:07.363Z,99103.16
2023-02-15T15:10:46.938Z,99104.53
2023-02-15T15:13:32.834Z,99101.50
2023-02-15T15:16:38.469Z,99097.84
2023-02-15T15:19:12.814Z,99097.44
2023-02-15T15:21:56.255Z,99091.59
2023-02-15T15:24:39.356Z,99091.25
2023-02-15T15:27:51.403Z,99091.19
2023-02-15T15:30:24.797Z,99090.13
2023-02-15T15:32:55.279Z,99086.13
2023-02-15T15:35:38.387Z,99085.94
2023-02-15T15:38:47.131Z,99090.59
2023-02-15T15:41:32.037Z,99089.03
2023-02-15T15:44:43.128Z,99085.25
2023-02-15T15:47:19.645Z,99086.09
2023-02-15T15:49:48.552Z,99085.75
2023-02-15T15:52:22.233Z,99084.06
2023-02-15T15:54:57.328Z,99084.88
2023-02-15T15:57:34.943Z,99075.22
2023-02-15T16:00:03.854Z,99081.63
2023-02-15T16:02:31.539Z,99077.69
2023-02-15T16:05:10.236Z,99079.84
2023-02-15T16:07:41.181Z,99076.13
2023-02-15T16:10:23.162Z,99078.31
2023-02-15T16:12:52.357Z,99078.44
2023-02-15T16:15:46.220Z,99079.91
2023-02-15T16:18:18.453Z,99079.09
2023-02-15T16:20:57.904Z,99085.47
2023-02-15T16:23:37.298Z,99091.75
2023-02-15T16:26:13.290Z,99083.59
2023-02-15T16:28:41.141Z,99086.50
2023-02-15T16:31:15.838Z,99086.75
2023-02-15T16:33:45.981Z,99086.59
2023-02-15T16:36:29.230Z,99091.81
2023-02-15T16:38:56.836Z,99087.66
2023-02-15T16:41:28.825Z,99089.53
2023-02-15T16:44:04.190Z,99096.44
2023-02-15T16:46:51.085Z,99090.22
2023-02-15T16:49:27.107Z,99095.72
2023-02-15T16:52:09.166Z,99091.50
2023-02-15T16:54:37.449Z,99082.97
2023-02-15T16:57:04.871Z,99090.16
2023-02-15T16:59:40.938Z,99091.06
2023-02-15T17:02:43.031Z,99093.66
2023-02-15T17:05:20.290Z,99091.56
2023-02-15T17:08:19.039Z,99089.91
2023-02-15T17:11:23.608Z,99092.78
2023-02-15T17:14:06.610Z,99096.78
2023-02-15T17:16:41.843Z,99093.41
2023-02-15T17:19:51.562Z,99097.69
2023-02-15T17:22:28.177Z,99096.69
2023-02-15T17:25:05.581Z,99098.41
2023-02-15T17:27:35.807Z,99099.34
2023-02-15T17:30:18.538Z,99096.38
2023-02-15T17:33:02.977Z,99087.72
2023-02-15T17:35:34.576Z,99091.53
2023-02-15T17:38:21.261Z,99093.66
2023-02-15T17:40:48.690Z,99091.53
2023-02-15T17:43:16.277Z,99089.06
2023-02-15T17:45:52.134Z,99099.41
2023-02-15T17:48:36.610Z,99095.41
2023-02-15T17:51:07.605Z,99095.25
2023-02-15T17:53:35.397Z,99091.75
2023-02-15T17:56:10.518Z,99089.00
2023-02-15T17:58:39.463Z,99088.09
2023-02-15T18:01:38.217Z,99087.88
2023-02-15T18:04:29.012Z,99089.69
2023-02-15T18:07:15.517Z,99084.72
2023-02-15T18:10:01.888Z,99089.41
2023-02-15T18:12:33.172Z,99078.66
2023-02-15T18:15:01.818Z,99091.31
2023-02-15T18:17:39.755Z,99085.00
2023-02-15T18:20:36.957Z,99081.34
2023-02-15T18:23:04.453Z,99082.00
2023-02-15T18:25:32.099Z,99083.09
2023-02-15T18:27:59.464Z,99083.81
2023-02-15T18:30:27.752Z,99082.19
2023-02-15T18:32:58.992Z,99079.53
2023-02-15T18:35:33.285Z,99077.91
2023-02-15T18:38:02.325Z,99071.59
2023-02-15T18:40:30.849Z,99072.22
2023-02-15T18:42:58.253Z,99078.00
2023-02-15T18:45:33.266Z,99083.31
2023-02-15T18:48:01.002Z,99073.94
2023-02-15T18:50:34.393Z,99080.09
2023-02-15T18:53:05.137Z,99084.53
2023-02-15T18:55:35.487Z,99084.31
2023-02-15T18:58:03.085Z,99090.19
2023-02-15T19:00:35.405Z,99085.72
2023-02-15T19:03:03.775Z,99085.78
2023-02-15T19:05:33.626Z,99078.84
2023-02-15T19:08:03.458Z,99082.91
2023-02-15T19:10:33.922Z,99076.28
2023-02-15T19:13:01.342Z,99071.69
2023-02-15T19:15:30.934Z,99062.75
2023-02-15T19:17:58.445Z,99065.97
2023-02-15T19:20:52.509Z,99065.16
2023-02-15T19:23:24.742Z,99058.75
2023-02-15T19:25:54.216Z,99064.06
2023-02-15T19:28:33.914Z,99056.81
2023-02-15T19:31:01.680Z,99056.81
2023-02-15T19:33:29.148Z,99057.72
2023-02-15T19:35:57.829Z,99063.13
2023-02-15T19:38:35.207Z,99059.69
2023-02-15T19:41:16.137Z,99054.53
2023-02-15T19:43:44.158Z,99054.91
2023-02-15T19:46:19.202Z,99054.13
2023-02-15T19:48:47.630Z,99057.91
2023-02-15T19:51:16.575Z,99053.69
2023-02-15T19:53:45.429Z,99045.88
2023-02-15T19:56:27.107Z,99048.69
2023-02-15T19:58:57.949Z,99046.41
2023-02-15T20:01:25.632Z,99042.13
2023-02-15T20:03:53.542Z,99045.31
2023-02-15T20:06:21.440Z,99030.06
2023-02-15T20:08:48.849Z,99029.47
2023-02-15T20:11:16.727Z,99028.81
2023-02-15T20:13:43.988Z,99016.13
2023-02-15T20:16:11.647Z,99022.00
2023-02-15T20:18:39.009Z,99022.53
2023-02-15T20:21:14.976Z,99024.66
2023-02-15T20:23:42.705Z,99018.81
2023-02-15T20:26:18.535Z,99011.41
2023-02-15T20:28:46.630Z,99007.06
2023-02-15T20:31:17.115Z,99002.06
2023-02-15T20:33:44.690Z,99007.03
2023-02-15T20:36:18.470Z,99002.88
2023-02-15T20:38:46.695Z,98994.88
2023-02-15T20:41:36.075Z,99002.06
2023-02-15T20:44:25.300Z,98995.47
2023-02-15T20:46:59.177Z,98994.72
2023-02-15T20:49:28.137Z,98997.44
2023-02-15T20:51:57.689Z,99002.16
2023-02-15T20:54:34.488Z,98996.47
2023-02-15T20:57:02.482Z,99000.31
2023-02-15T20:59:32.958Z,98999.47
2023-02-15T21:02:16.894Z,99006.53
2023-02-15T21:04:44.478Z,99006.53
2023-02-15T21:07:21.886Z,99002.44
2023-02-15T21:09:49.792Z,98992.63
2023-02-15T21:12:21.227Z,99009.19
2023-02-15T21:14:48.581Z,99005.91
2023-02-15T21:17:17.621Z,99002.78
2023-02-15T21:19:45.025Z,98993.09
2023-02-15T21:22:16.168Z,99000.19
2023-02-15T21:24:53.631Z,99000.41
2023-02-15T21:27:22.361Z,99007.22
2023-02-15T21:29:49.827Z,99003.00
2023-02-15T21:32:19.278Z,98990.09
2023-02-15T21:34:46.660Z,98986.00
2023-02-15T21:37:33.002Z,98983.47
2023-02-15T21:40:00.731Z,98980.03
2023-02-15T21:42:47.566Z,98982.69
2023-02-15T21:45:35.854Z,98976.53
2023-02-15T21:48:03.682Z,98975.28
2023-02-15T21:50:50.194Z,98980.31
2023-02-15T21:53:32.061Z,98977.09
2023-02-15T21:56:03.808Z,98973.72
2023-02-15T21:58:36.731Z,98973.59
2023-02-15T22:01:05.618Z,98965.75
2023-02-15T22:03:37.971Z,98962.53
2023-02-15T22:06:06.322Z,98962.47
2023-02-15T22:08:34.449Z,98955.00
2023-02-15T22:11:02.098Z,98954.63
2023-02-15T22:13:33.983Z,98957.47
2023-02-15T22:16:03.284Z,98953.13
2023-02-15T22:18:34.465Z,98960.31
2023-02-15T22:21:04.449Z,98959.66
2023-02-15T22:23:32.461Z,98963.78
2023-02-15T22:26:06.174Z,98969.16
2023-02-15T22:28:40.503Z,98957.97
2023-02-15T22:31:18.822Z,98961.75
2023-02-15T22:33:49.789Z,98959.03
2023-02-15T22:36:30.256Z,98962.56
2023-02-15T22:38:58.362Z,98963.47
2023-02-15T22:41:30.302Z,98958.41
2023-02-15T22:43:58.481Z,98960.22
2023-02-15T22:46:26.748Z,98955.78
2023-02-15T22:48:54.569Z,98958.38
2023-02-15T22:51:24.653Z,98956.03
2023-02-15T22:53:53.897Z,98966.34
2023-02-15T22:56:36.842Z,98970.66
2023-02-15T22:59:10.796Z,98969.81
2023-02-15T23:01:38.767Z,98969.72
2023-02-15T23:04:06.461Z,98959.38
2023-02-15T23:06:34.735Z,98955.09
2023-02-15T23:09:02.434Z,98952.56
2023-02-15T23:11:29.800Z,98948.16
2023-02-15T23:13:57.626Z,98942.22
2023-02-15T23:16:24.969Z,98940.50
2023-02-15T23:18:52.553Z,98940.41
2023-02-15T23:21:24.993Z,98939.59
2023-02-15T23:24:23.200Z,98935.38
2023-02-15T23:26:51.189Z,98930.22
2023-02-15T23:29:24.340Z,98931.16
2023-02-15T23:31:55.085Z,98933.94
2023-02-15T23:34:29.436Z,98938.06
2023-02-15T23:36:57.357Z,98940.75
2023-02-15T23:39:47.515Z,98932.16
2023-02-15T23:42:27.615Z,98924.63
2023-02-15T23:44:55.555Z,98929.66
2023-02-15T23:47:54.798Z,98928.97
2023-02-15T23:50:29.428Z,98917.91
2023-02-15T23:52:57.922Z,98924.78
2023-02-15T23:55:43.285Z,98916.94
2023-02-15T23:58:22.213Z,98914.38
